Time;durP1;ratioP1;P1;durP2;ratioP2;P2;SDS_P1;SDS_P2;PMS_P1;PMS_P2;Temp;Humidity;BMP_temperature;BMP_pressure;BME280_temperature;BME280_humidity;BME280_pressure;Samples;Min_cycle;Max_cycle;Signal;HPM_P1;HPM_P2
2023/06/19 00:00:24;;;;;;;13.80;12.60;;;;;;;14.81;83.08;100451.75;79720;278;3011483;-73
2023/06/19 00:03:20;;;;;;;13.20;12.00;;;;;;;14.73;83.09;100451.96;78912;279;3027029;-73
2023/06/19 00:05:55;;;;;;;14.20;12.00;;;;;;;14.67;82.98;100455.27;78924;279;3027835;-73
2023/06/19 00:08:31;;;;;;;13.20;12.00;;;;;;;14.64;83.21;100452.11;78948;279;3027038;-73
2023/06/19 00:11:06;;;;;;;14.50;13.20;;;;;;;14.62;83.40;100453.08;78886;271;3026983;-72
2023/06/19 00:13:41;;;;;;;14.70;13.20;;;;;;;14.60;83.18;100452.52;78983;279;3028708;-73
2023/06/19 00:16:19;;;;;;;14.80;13.30;;;;;;;14.55;83.15;100455.95;78938;279;3028072;-73
2023/06/19 00:18:55;;;;;;;14.30;13.00;;;;;;;14.49;83.18;100458.71;78995;279;3028159;-72
2023/06/19 00:21:31;;;;;;;14.50;13.00;;;;;;;14.42;83.02;100459.02;78951;279;3027782;-72
2023/06/19 00:24:06;;;;;;;14.80;13.30;;;;;;;14.37;83.14;100457.89;79021;279;3027119;-73
2023/06/19 00:26:44;;;;;;;14.60;13.20;;;;;;;14.34;82.97;100455.98;78989;279;3026883;-72
2023/06/19 00:29:19;;;;;;;13.50;12.30;;;;;;;14.29;82.84;100460.25;78977;279;3026623;-73
2023/06/19 00:31:56;;;;;;;14.40;13.00;;;;;;;14.21;82.90;100461.35;79660;279;3011459;-73
2023/06/19 00:34:32;;;;;;;13.80;12.50;;;;;;;14.17;83.05;100462.29;78943;271;3028529;-73
2023/06/19 00:37:09;;;;;;;13.60;12.20;;;;;;;14.13;83.01;100458.98;78963;279;3027720;-74
2023/06/19 00:39:45;;;;;;;14.20;12.70;;;;;;;14.10;83.22;100458.77;78976;279;3027195;-73
2023/06/19 00:42:21;;;;;;;14.20;12.80;;;;;;;14.09;83.39;100460.75;79627;279;3011427;-73
2023/06/19 00:44:57;;;;;;;14.50;13.20;;;;;;;14.06;83.35;100462.16;78916;279;3028826;-73
2023/06/19 00:47:33;;;;;;;14.30;12.80;;;;;;;14.01;83.38;100461.33;78940;279;3027050;-73
2023/06/19 00:50:11;;;;;;;14.30;12.90;;;;;;;13.97;83.07;100468.05;78925;279;3027271;-72
2023/06/19 00:52:46;;;;;;;15.60;12.90;;;;;;;13.89;83.25;100472.80;78949;279;3027316;-73
2023/06/19 00:55:22;;;;;;;13.40;12.00;;;;;;;13.85;83.43;100473.90;78932;279;3027807;-73
2023/06/19 00:57:57;;;;;;;13.80;12.50;;;;;;;13.82;83.29;100472.65;78892;279;3028727;-74
2023/06/19 01:00:33;;;;;;;13.40;12.10;;;;;;;13.79;83.66;100468.92;78971;279;3027264;-73
2023/06/19 01:03:08;;;;;;;14.70;12.90;;;;;;;13.78;83.75;100465.83;78973;279;3027483;-71
2023/06/19 01:05:44;;;;;;;14.70;13.10;;;;;;;13.76;83.79;100466.09;79025;278;3027178;-73
2023/06/19 01:08:30;;;;;;;15.30;12.50;;;;;;;13.76;84.29;100462.61;79025;278;3027257;-73
2023/06/19 01:11:06;;;;;;;13.40;12.20;;;;;;;13.75;84.08;100461.41;79002;278;3027803;-74
2023/06/19 01:13:45;;;;;;;14.10;12.40;;;;;;;13.70;83.63;100460.25;79140;277;3026852;-71
2023/06/19 01:16:25;;;;;;;13.50;12.10;;;;;;;13.62;83.62;100459.45;78954;278;3027385;-73
2023/06/19 01:19:01;;;;;;;13.80;12.60;;;;;;;13.59;83.67;100460.09;78966;278;3026696;-73
2023/06/19 01:21:37;;;;;;;14.60;13.20;;;;;;;13.58;83.94;100455.96;78979;278;3027737;-72
2023/06/19 01:24:13;;;;;;;13.80;12.40;;;;;;;13.56;84.06;100458.15;78958;278;3027028;-73
2023/06/19 01:26:49;;;;;;;14.80;13.30;;;;;;;13.54;84.03;100456.86;79725;278;3011523;-72
2023/06/19 01:29:25;;;;;;;14.80;13.40;;;;;;;13.51;84.03;100455.95;79699;278;3011451;-72
2023/06/19 01:32:04;;;;;;;14.40;13.10;;;;;;;13.49;84.44;100455.52;79684;278;3012567;-71
2023/06/19 01:34:39;;;;;;;13.90;12.50;;;;;;;13.47;84.41;100457.37;78965;278;3027068;-73
2023/06/19 01:37:15;;;;;;;14.40;12.90;;;;;;;13.46;84.42;100460.03;79828;277;3011474;-72
2023/06/19 01:39:50;;;;;;;15.70;14.10;;;;;;;13.45;84.60;100458.01;78992;278;3028682;-73
2023/06/19 01:42:26;;;;;;;14.50;13.20;;;;;;;13.41;84.49;100459.41;79709;277;3011553;-72
2023/06/19 01:45:03;;;;;;;14.60;13.10;;;;;;;13.36;84.49;100464.02;79776;277;3011776;-72
2023/06/19 01:47:41;;;;;;;14.50;13.10;;;;;;;13.29;84.28;100468.77;79737;277;3011303;-73
2023/06/19 01:50:16;;;;;;;14.90;12.60;;;;;;;13.21;84.08;100464.92;79073;277;3027821;-71
2023/06/19 01:52:52;;;;;;;13.40;12.00;;;;;;;13.17;84.15;100469.45;79794;277;3011670;-73
2023/06/19 01:55:28;;;;;;;13.20;11.80;;;;;;;13.13;84.21;100461.06;79764;277;3011574;-73
2023/06/19 01:58:05;;;;;;;12.90;11.70;;;;;;;13.08;83.97;100460.95;79701;278;3011779;-73
2023/06/19 02:00:41;;;;;;;13.20;11.90;;;;;;;13.05;84.31;100456.55;79784;277;3011543;-72
2023/06/19 02:03:17;;;;;;;13.50;12.20;;;;;;;13.03;84.33;100456.27;79811;277;3011561;-72
2023/06/19 02:05:53;;;;;;;13.80;12.40;;;;;;;13.02;84.40;100459.64;79687;277;3011432;-73
2023/06/19 02:08:29;;;;;;;14.70;13.30;;;;;;;13.02;84.46;100463.52;79748;277;3013310;-73
2023/06/19 02:11:04;;;;;;;14.40;13.00;;;;;;;13.00;84.54;100459.05;78864;277;3027364;-72
2023/06/19 02:13:41;;;;;;;14.90;12.30;;;;;;;13.01;84.64;100462.55;79761;277;3011666;-71
2023/06/19 02:16:16;;;;;;;13.00;11.80;;;;;;;12.97;84.64;100460.94;78939;277;3027225;-73
2023/06/19 02:18:52;;;;;;;13.00;11.70;;;;;;;12.95;84.47;100467.52;79728;277;3011343;-72
2023/06/19 02:21:29;;;;;;;18.10;12.60;;;;;;;12.94;84.48;100465.11;79774;277;3013219;-72
2023/06/19 02:24:04;;;;;;;13.40;12.10;;;;;;;12.89;84.21;100464.96;79022;277;3028576;-73
2023/06/19 02:26:40;;;;;;;12.50;11.20;;;;;;;12.79;83.88;100466.52;78855;277;3026696;-73
2023/06/19 02:29:15;;;;;;;12.60;11.30;;;;;;;12.75;84.36;100467.23;79024;277;3027130;-72
2023/06/19 02:31:50;;;;;;;12.00;11.00;;;;;;;12.72;84.48;100470.46;79021;277;3028006;-72
2023/06/19 02:34:27;;;;;;;12.50;11.30;;;;;;;12.71;84.77;100473.85;79813;277;3011471;-72
2023/06/19 02:37:03;;;;;;;13.70;12.30;;;;;;;12.72;84.94;100471.90;79767;277;3011565;-72
2023/06/19 02:39:39;;;;;;;12.80;11.50;;;;;;;12.72;85.23;100469.08;79000;266;3027240;-72
2023/06/19 02:42:14;;;;;;;14.30;12.90;;;;;;;12.76;85.62;100472.23;78999;277;3028369;-71
2023/06/19 02:44:50;;;;;;;15.20;13.50;;;;;;;12.80;85.83;100467.31;78904;278;3027818;-71
2023/06/19 02:47:25;;;;;;;13.90;12.60;;;;;;;12.82;85.63;100468.08;78955;277;3026698;-72
2023/06/19 02:50:02;;;;;;;13.90;12.60;;;;;;;12.76;85.41;100463.63;79737;277;3013233;-72
2023/06/19 02:52:38;;;;;;;13.50;12.20;;;;;;;12.78;86.02;100466.92;78908;278;3027959;-73
2023/06/19 02:55:14;;;;;;;14.00;12.70;;;;;;;12.83;86.38;100465.95;78971;277;3028383;-72
2023/06/19 02:57:49;;;;;;;13.20;11.50;;;;;;;12.85;86.14;100462.02;78985;277;3026691;-72
2023/06/19 03:00:27;;;;;;;12.70;11.40;;;;;;;12.84;86.05;100461.89;79745;278;3012808;-73
2023/06/19 03:03:02;;;;;;;12.70;11.40;;;;;;;12.87;86.35;100468.59;79033;277;3027719;-72
2023/06/19 03:05:39;;;;;;;13.10;11.80;;;;;;;12.95;86.79;100468.58;79743;277;3011540;-73
2023/06/19 03:08:14;;;;;;;12.90;11.70;;;;;;;13.00;86.93;100472.35;78942;277;3027950;-73
2023/06/19 03:10:50;;;;;;;12.60;11.40;;;;;;;13.03;86.82;100480.06;79676;278;3011528;-72
2023/06/19 03:13:26;;;;;;;12.80;11.60;;;;;;;13.03;86.73;100478.50;79743;277;3011346;-73
2023/06/19 03:16:01;;;;;;;12.40;11.30;;;;;;;13.05;86.67;100480.37;79006;277;3028064;-73
2023/06/19 03:18:37;;;;;;;12.50;11.20;;;;;;;13.06;86.61;100481.36;79035;277;3027202;-73
2023/06/19 03:21:13;;;;;;;14.20;11.20;;;;;;;13.07;86.71;100482.20;79723;278;3013225;-73
2023/06/19 03:23:48;;;;;;;12.10;11.10;;;;;;;13.13;86.98;100480.34;78631;277;3027354;-72
2023/06/19 03:26:25;;;;;;;11.70;10.70;;;;;;;13.18;87.03;100476.08;79741;277;3011435;-73
2023/06/19 03:29:01;;;;;;;12.20;10.90;;;;;;;13.29;87.36;100483.65;79016;277;3026901;-73
2023/06/19 03:31:39;;;;;;;12.20;11.00;;;;;;;13.40;87.24;100486.78;79728;277;3011499;-73
2023/06/19 03:34:14;;;;;;;12.10;10.90;;;;;;;13.51;87.12;100485.37;78968;277;3028820;-73
2023/06/19 03:36:50;;;;;;;11.90;10.70;;;;;;;13.85;87.78;100487.73;79704;277;3011620;-73
2023/06/19 03:39:27;;;;;;;11.70;10.60;;;;;;;14.49;88.67;100492.05;79701;277;3011091;-72
2023/06/19 03:42:03;;;;;;;12.00;10.70;;;;;;;15.16;89.03;100489.50;79643;277;3011280;-72
2023/06/19 03:44:38;;;;;;;11.80;10.70;;;;;;;15.82;87.52;100488.27;78963;277;3030529;-74
2023/06/19 03:47:16;;;;;;;11.20;10.20;;;;;;;16.29;86.82;100486.23;79707;277;3013184;-75
2023/06/19 03:49:53;;;;;;;11.10;10.10;;;;;;;16.99;86.20;100484.92;79018;278;3027193;-72
2023/06/19 03:52:28;;;;;;;12.10;11.00;;;;;;;17.53;82.67;100482.22;78955;277;3027073;-73
2023/06/19 03:55:06;;;;;;;11.20;10.30;;;;;;;17.86;80.08;100484.30;79772;277;3012995;-73
2023/06/19 03:57:42;;;;;;;11.00;10.10;;;;;;;18.11;79.21;100480.85;79005;277;3026805;-73
2023/06/19 04:00:20;;;;;;;11.20;10.20;;;;;;;18.14;77.04;100479.89;78981;278;3029768;-73
2023/06/19 04:02:56;;;;;;;10.90;9.60;;;;;;;17.77;75.01;100477.77;79010;277;3027971;-74
2023/06/19 04:05:31;;;;;;;10.10;9.30;;;;;;;17.44;75.11;100477.13;78971;277;3027245;-74
2023/06/19 04:08:08;;;;;;;11.30;10.20;;;;;;;17.14;74.80;100476.20;79780;277;3011579;-74
2023/06/19 04:10:43;;;;;;;11.30;10.40;;;;;;;16.95;75.51;100473.36;78980;277;3028080;-74
2023/06/19 04:13:19;;;;;;;11.00;9.90;;;;;;;16.76;75.60;100473.71;79738;277;3011335;-74
2023/06/19 04:15:54;;;;;;;10.30;9.30;;;;;;;16.60;76.09;100479.61;78959;278;3027596;-74
2023/06/19 04:18:30;;;;;;;9.90;9.10;;;;;;;16.74;77.31;100479.98;79744;278;3011523;-74
2023/06/19 04:21:07;;;;;;;10.30;8.70;;;;;;;17.31;78.98;100481.34;79688;275;3011533;-73
2023/06/19 04:23:42;;;;;;;10.20;9.20;;;;;;;18.02;78.48;100478.94;79010;277;3027162;-74
2023/06/19 04:26:19;;;;;;;11.10;10.00;;;;;;;18.57;76.29;100478.02;79713;270;3011533;-74
2023/06/19 04:29:16;;;;;;;11.60;10.60;;;;;;;18.76;74.58;100479.54;79013;277;3027145;-73
2023/06/19 04:31:51;;;;;;;11.50;10.50;;;;;;;18.75;73.22;100477.52;78959;278;3027859;-74
2023/06/19 04:34:28;;;;;;;11.90;10.80;;;;;;;18.80;73.73;100476.62;79752;277;3011431;-73
2023/06/19 04:37:03;;;;;;;11.10;10.20;;;;;;;18.88;73.78;100473.94;79013;278;3027275;-73
2023/06/19 04:39:38;;;;;;;11.30;10.30;;;;;;;18.93;72.73;100472.51;78949;278;3027851;-72
2023/06/19 04:42:19;;;;;;;11.70;10.60;;;;;;;18.98;72.44;100470.90;79768;278;3012514;-73
2023/06/19 04:44:55;;;;;;;11.40;10.40;;;;;;;18.90;72.30;100473.48;78959;277;3026731;-73
2023/06/19 04:47:30;;;;;;;11.10;10.10;;;;;;;18.83;72.56;100475.17;78993;277;3027163;-73
2023/06/19 04:50:07;;;;;;;10.90;10.00;;;;;;;18.96;72.91;100476.02;79017;278;3027025;-73
2023/06/19 04:52:42;;;;;;;10.00;9.20;;;;;;;19.43;72.47;100476.55;79032;277;3028614;-73
2023/06/19 04:55:18;;;;;;;10.10;9.30;;;;;;;20.10;72.22;100473.27;78981;278;3027067;-73
2023/06/19 04:57:54;;;;;;;9.80;9.00;;;;;;;20.73;71.44;100469.16;79752;277;3011537;-73
2023/06/19 05:00:30;;;;;;;10.40;9.50;;;;;;;21.43;70.59;100467.05;78963;277;3029054;-73
2023/06/19 05:03:05;;;;;;;9.60;8.90;;;;;;;22.14;68.50;100462.88;79025;277;3028408;-72
2023/06/19 05:05:40;;;;;;;9.60;8.70;;;;;;;23.03;67.67;100464.48;78964;277;3026850;-73
2023/06/19 05:08:17;;;;;;;8.60;7.90;;;;;;;24.07;65.35;100460.50;79755;277;3011273;-73
2023/06/19 05:10:53;;;;;;;8.10;7.40;;;;;;;25.03;62.86;100457.70;78980;277;3026615;-73
2023/06/19 05:13:28;;;;;;;7.90;7.30;;;;;;;25.94;57.59;100458.48;79012;277;3028527;-73
2023/06/19 05:16:05;;;;;;;7.30;6.70;;;;;;;26.65;53.95;100462.28;79714;277;3011549;-72
2023/06/19 05:18:41;;;;;;;7.00;6.40;;;;;;;27.20;52.28;100459.70;79760;277;3013000;-74
2023/06/19 05:21:16;;;;;;;6.60;6.00;;;;;;;27.84;50.23;100462.31;79040;277;3027199;-73
2023/06/19 05:23:53;;;;;;;6.10;5.60;;;;;;;28.37;47.66;100464.16;79726;278;3011502;-73
2023/06/19 05:26:32;;;;;;;6.00;5.40;;;;;;;28.85;46.66;100465.92;78983;277;3027773;-73
2023/06/19 05:29:08;;;;;;;5.30;4.80;;;;;;;29.27;44.89;100468.55;79058;277;3026466;-73
2023/06/19 05:31:44;;;;;;;5.20;4.80;;;;;;;29.52;43.00;100472.98;79111;277;3027318;-73
2023/06/19 05:34:20;;;;;;;5.40;5.00;;;;;;;29.91;42.31;100478.84;79795;277;3011554;-73
2023/06/19 05:36:57;;;;;;;5.70;5.30;;;;;;;30.34;42.34;100484.15;79082;277;3026926;-79
2023/06/19 05:39:33;;;;;;;5.70;5.20;;;;;;;30.58;40.98;100483.84;79049;277;3026892;-77
2023/06/19 05:42:11;;;;;;;5.70;5.30;;;;;;;30.92;39.96;100485.83;78937;278;3027335;-76
2023/06/19 05:44:47;;;;;;;7.00;5.60;;;;;;;31.31;39.45;100488.53;79014;277;3027308;-72
2023/06/19 05:47:25;;;;;;;5.60;5.00;;;;;;;31.66;38.80;100497.23;78985;277;3027369;-81
2023/06/19 05:50:01;;;;;;;5.20;4.80;;;;;;;31.86;37.92;100497.59;79003;277;3027680;-74
2023/06/19 05:52:42;;;;;;;5.40;4.90;;;;;;;32.06;36.76;100499.19;78980;277;3027477;-72
2023/06/19 05:55:18;;;;;;;5.50;5.10;;;;;;;32.27;36.28;100502.27;78971;277;3027485;-73
2023/06/19 05:57:54;;;;;;;5.10;4.70;;;;;;;32.56;35.96;100505.63;79748;277;3013226;-73
2023/06/19 06:00:30;;;;;;;5.20;4.70;;;;;;;32.64;35.70;100507.89;78874;278;3028362;-73
2023/06/19 06:03:06;;;;;;;5.20;4.70;;;;;;;32.75;35.46;100511.55;79018;277;3028043;-73
2023/06/19 06:05:41;;;;;;;7.20;5.60;;;;;;;32.66;35.52;100513.03;78960;277;3027077;-73
2023/06/19 06:08:17;;;;;;;5.50;5.00;;;;;;;32.73;35.26;100515.29;79051;277;3028327;-73
2023/06/19 06:10:53;;;;;;;5.20;4.40;;;;;;;32.75;34.97;100515.59;79745;277;3011558;-73
2023/06/19 06:13:29;;;;;;;5.30;4.80;;;;;;;32.97;34.80;100519.26;79764;277;3012708;-74
2023/06/19 06:16:06;;;;;;;5.20;4.80;;;;;;;33.18;34.84;100519.38;78964;277;3026909;-74
2023/06/19 06:18:42;;;;;;;6.20;5.50;;;;;;;33.38;34.64;100519.84;78998;277;3030574;-74
2023/06/19 06:21:18;;;;;;;5.30;4.80;;;;;;;33.99;33.16;100526.98;79747;277;3011512;-74
2023/06/19 06:23:54;;;;;;;5.20;4.80;;;;;;;34.37;32.04;100534.00;79049;277;3028190;-73
2023/06/19 06:26:29;;;;;;;5.20;4.80;;;;;;;34.58;31.28;100532.59;78984;277;3027032;-73
2023/06/19 06:29:06;;;;;;;5.60;5.20;;;;;;;34.88;31.21;100537.08;79768;277;3011542;-73
2023/06/19 06:31:46;;;;;;;4.80;4.40;;;;;;;35.17;30.04;100538.86;78973;277;3028536;-73
2023/06/19 06:34:22;;;;;;;5.10;4.70;;;;;;;35.20;30.52;100536.88;78990;277;3026830;-74
2023/06/19 06:36:58;;;;;;;5.10;4.60;;;;;;;35.30;29.67;100534.44;78984;277;3026757;-75
2023/06/19 06:39:34;;;;;;;4.20;3.80;;;;;;;35.72;29.37;100535.84;79046;277;3026699;-74
2023/06/19 06:42:10;;;;;;;5.70;4.70;;;;;;;36.06;28.99;100535.09;78894;277;3027284;-74
2023/06/19 06:44:46;;;;;;;5.80;5.30;;;;;;;36.15;28.19;100541.52;78997;278;3027578;-74
2023/06/19 06:47:21;;;;;;;4.70;4.40;;;;;;;35.99;28.60;100539.91;78950;277;3027831;-74
2023/06/19 06:50:00;;;;;;;5.00;4.60;;;;;;;35.91;28.32;100539.08;79008;277;3027439;-73
2023/06/19 06:52:42;;;;;;;4.50;4.20;;;;;;;35.72;28.73;100540.53;79026;277;3027355;-74
2023/06/19 06:55:18;;;;;;;4.80;4.40;;;;;;;35.84;28.31;100542.38;79013;277;3026651;-74
2023/06/19 06:57:53;;;;;;;5.00;4.60;;;;;;;36.13;27.86;100542.78;79049;277;3028794;-75
2023/06/19 07:00:30;;;;;;;4.50;4.10;;;;;;;36.25;27.27;100544.15;79773;277;3011381;-74
2023/06/19 07:03:08;;;;;;;4.60;4.30;;;;;;;36.31;27.48;100541.99;79030;277;3026664;-74
2023/06/19 07:05:49;;;;;;;4.80;4.40;;;;;;;36.46;27.26;100541.10;78991;277;3027090;-74
2023/06/19 07:08:24;;;;;;;4.90;4.60;;;;;;;36.73;26.68;100535.71;79025;277;3027547;-74
2023/06/19 07:11:01;;;;;;;5.20;4.70;;;;;;;36.91;26.33;100534.53;79800;277;3011622;-75
2023/06/19 07:13:37;;;;;;;4.50;4.20;;;;;;;36.84;26.21;100531.94;79782;277;3011463;-73
2023/06/19 07:16:14;;;;;;;4.40;4.10;;;;;;;36.84;25.11;100530.05;79017;277;3028308;-74
2023/06/19 07:18:50;;;;;;;4.10;3.40;;;;;;;36.87;25.61;100529.00;79041;277;3027866;-74
2023/06/19 07:21:27;;;;;;;5.40;5.00;;;;;;;37.07;25.79;100525.62;78986;277;3027173;-74
2023/06/19 07:24:03;;;;;;;4.90;4.60;;;;;;;37.25;25.60;100524.55;78963;277;3027095;-75
2023/06/19 07:26:40;;;;;;;5.20;4.80;;;;;;;37.22;26.10;100526.05;78967;277;3027052;-75
2023/06/19 07:29:16;;;;;;;5.00;4.70;;;;;;;37.27;25.77;100523.95;78958;277;3028013;-75
2023/06/19 07:31:53;;;;;;;4.90;4.40;;;;;;;37.27;25.66;100528.75;78972;277;3027648;-74
2023/06/19 07:34:29;;;;;;;4.90;4.40;;;;;;;37.26;25.86;100522.40;78951;277;3026751;-74
2023/06/19 07:37:05;;;;;;;5.20;4.80;;;;;;;37.40;26.04;100522.05;78951;277;3026968;-74
2023/06/19 07:39:41;;;;;;;5.70;5.20;;;;;;;37.43;25.08;100518.20;78955;278;3028026;-74
2023/06/19 07:42:17;;;;;;;5.80;5.30;;;;;;;37.25;24.91;100523.25;79745;278;3011406;-74
2023/06/19 07:44:53;;;;;;;5.40;5.00;;;;;;;37.24;24.94;100522.76;79769;277;3011557;-74
2023/06/19 07:47:30;;;;;;;5.50;5.00;;;;;;;37.23;24.88;100528.91;79741;278;3011452;-74
2023/06/19 07:50:04;;;;;;;;;;;;;;;36.99;24.73;100525.34;79016;278;3027922;-74
2023/06/19 07:52:39;;;;;;;5.10;4.80;;;;;;;36.87;26.11;100527.42;80270;277;3011468;-75
2023/06/19 07:55:17;;;;;;;5.30;5.00;;;;;;;36.95;25.49;100527.40;78980;277;3026736;-74
2023/06/19 07:57:56;;;;;;;5.20;4.70;;;;;;;37.05;25.36;100528.71;79033;277;3027873;-74
2023/06/19 08:00:31;;;;;;;5.00;4.60;;;;;;;37.25;24.75;100528.33;78974;278;3028520;-74
2023/06/19 08:03:07;;;;;;;5.10;4.70;;;;;;;37.35;25.50;100527.75;79018;277;3027642;-74
2023/06/19 08:05:44;;;;;;;5.10;4.70;;;;;;;37.74;25.62;100531.27;78972;277;3027393;-74
2023/06/19 08:08:20;;;;;;;5.00;4.70;;;;;;;37.82;23.94;100533.19;79662;279;3011508;-74
2023/06/19 08:10:57;;;;;;;4.90;4.60;;;;;;;37.87;23.78;100534.10;78876;279;3027360;-74
2023/06/19 08:13:33;;;;;;;4.60;4.20;;;;;;;38.00;23.79;100531.03;78989;277;3027370;-74
2023/06/19 08:16:10;;;;;;;5.10;4.80;;;;;;;38.27;23.86;100529.89;79709;277;3011306;-73
2023/06/19 08:18:44;;;;;;;;;;;;;;;38.47;23.65;100528.70;79031;278;3026851;-74
2023/06/19 08:21:21;;;;;;;4.20;3.90;;;;;;;38.43;24.08;100528.61;79726;277;3011377;-74
2023/06/19 08:23:57;;;;;;;4.20;3.90;;;;;;;38.72;23.83;100523.35;79005;277;3026757;-74
2023/06/19 08:26:32;;;;;;;3.70;3.40;;;;;;;38.80;23.49;100520.52;78953;277;3028100;-74
2023/06/19 08:29:07;;;;;;;4.00;3.80;;;;;;;38.91;23.49;100524.55;79002;278;3027228;-74
2023/06/19 08:31:43;;;;;;;3.50;3.30;;;;;;;38.98;22.87;100525.47;78905;279;3030286;-74
2023/06/19 08:34:19;;;;;;;3.60;3.40;;;;;;;39.06;22.48;100528.04;79826;277;3011486;-74
2023/06/19 08:36:55;;;;;;;3.40;3.10;;;;;;;38.91;22.30;100526.57;78985;277;3028717;-74
2023/06/19 08:39:30;;;;;;;4.50;3.60;;;;;;;38.85;22.09;100527.70;78981;278;3029062;-74
2023/06/19 08:42:07;;;;;;;3.50;3.20;;;;;;;38.71;22.56;100527.42;79010;278;3027235;-74
2023/06/19 08:44:43;;;;;;;4.10;3.80;;;;;;;38.65;22.25;100529.91;79018;278;3027575;-77
2023/06/19 08:47:19;;;;;;;4.10;3.30;;;;;;;38.87;22.63;100530.58;78939;277;3028416;-77
2023/06/19 08:49:54;;;;;;;4.40;3.90;;;;;;;39.02;22.27;100531.50;79131;277;3026943;-75
2023/06/19 08:52:30;;;;;;;3.70;3.40;;;;;;;39.03;22.76;100533.63;78973;277;3027287;-73
2023/06/19 08:55:06;;;;;;;3.70;3.50;;;;;;;39.13;22.35;100533.48;78902;271;3027356;-74
2023/06/19 08:57:42;;;;;;;3.20;3.00;;;;;;;39.11;21.85;100533.00;78938;277;3027704;-74
2023/06/19 09:00:27;;;;;;;3.30;3.10;;;;;;;39.13;21.34;100531.09;78973;277;3026780;-74
2023/06/19 09:03:05;;;;;;;3.20;3.00;;;;;;;38.97;21.86;100536.60;78982;277;3026580;-74
2023/06/19 09:05:49;;;;;;;2.80;2.70;;;;;;;38.94;22.45;100534.23;78969;277;3028167;-74
2023/06/19 09:08:26;;;;;;;3.10;2.90;;;;;;;38.80;22.56;100533.05;78975;277;3027886;-74
2023/06/19 09:11:03;;;;;;;3.10;2.90;;;;;;;38.63;22.65;100535.52;78965;277;3027324;-75
2023/06/19 09:13:39;;;;;;;3.20;3.00;;;;;;;38.38;22.16;100533.52;78991;277;3027999;-76
2023/06/19 09:16:16;;;;;;;3.30;3.10;;;;;;;38.06;22.62;100527.48;78968;277;3026774;-74
2023/06/19 09:18:51;;;;;;;3.20;3.00;;;;;;;37.77;22.46;100527.42;78984;277;3027338;-73
2023/06/19 09:21:28;;;;;;;3.30;3.10;;;;;;;37.41;22.17;100524.56;78995;277;3027358;-74
2023/06/19 09:24:11;;;;;;;3.30;3.10;;;;;;;36.99;22.75;100524.65;79018;277;3028238;-74
2023/06/19 09:26:49;;;;;;;3.50;3.30;;;;;;;36.46;23.62;100530.19;78971;277;3027675;-74
2023/06/19 09:29:30;;;;;;;3.60;3.30;;;;;;;35.88;23.03;100527.05;78999;265;3026966;-74
2023/06/19 09:32:16;;;;;;;3.80;3.30;;;;;;;35.37;24.12;100527.02;78994;277;3027380;-74
2023/06/19 09:34:52;;;;;;;3.00;2.80;;;;;;;34.97;25.03;100529.00;78958;278;3027626;-74
2023/06/19 09:37:29;;;;;;;3.40;3.20;;;;;;;34.81;25.98;100528.24;78955;277;3027614;-74
2023/06/19 09:40:10;;;;;;;3.90;3.60;;;;;;;34.61;26.14;100527.11;78936;278;3027523;-75
2023/06/19 09:42:46;;;;;;;4.10;3.70;;;;;;;34.42;26.61;100528.71;78909;279;3028128;-74
2023/06/19 09:45:28;;;;;;;4.20;3.10;;;;;;;34.28;26.55;100529.59;78973;277;3027057;-74
2023/06/19 09:48:04;;;;;;;3.80;3.50;;;;;;;34.06;26.80;100524.44;78994;277;3026590;-74
2023/06/19 09:50:40;;;;;;;4.20;3.90;;;;;;;33.83;26.13;100520.01;78899;271;3026930;-74
2023/06/19 09:53:15;;;;;;;3.50;3.30;;;;;;;33.39;26.46;100518.63;78984;277;3028417;-74
2023/06/19 09:55:52;;;;;;;4.00;3.70;;;;;;;33.12;27.85;100517.40;78986;278;3028783;-74
2023/06/19 09:58:28;;;;;;;4.30;3.30;;;;;;;33.16;28.64;100517.88;79011;277;3028505;-74
2023/06/19 10:01:04;;;;;;;3.60;3.30;;;;;;;33.18;29.14;100516.54;78991;277;3028534;-74
2023/06/19 10:03:40;;;;;;;3.80;3.50;;;;;;;33.14;29.14;100519.89;79056;277;3028254;-74
2023/06/19 10:06:19;;;;;;;3.60;3.30;;;;;;;33.14;28.25;100512.27;79007;277;3027344;-74
2023/06/19 10:08:55;;;;;;;5.20;3.40;;;;;;;33.10;28.43;100515.00;78986;277;3026659;-74
2023/06/19 10:11:31;;;;;;;6.10;4.20;;;;;;;32.98;28.72;100507.69;79057;277;3027451;-74
2023/06/19 10:14:11;;;;;;;3.60;3.30;;;;;;;32.86;28.72;100509.77;79824;277;3013183;-74
2023/06/19 10:16:47;;;;;;;7.60;3.90;;;;;;;32.80;28.76;100504.23;79031;277;3027671;-74
2023/06/19 10:19:25;;;;;;;5.20;3.40;;;;;;;32.76;29.05;100510.55;79011;277;3026684;-74
2023/06/19 10:22:00;;;;;;;3.70;3.40;;;;;;;32.73;28.84;100511.73;79016;277;3028808;-74
2023/06/19 10:24:36;;;;;;;3.50;3.30;;;;;;;32.69;28.82;100511.00;79053;277;3027244;-74
2023/06/19 10:27:12;;;;;;;3.80;3.50;;;;;;;32.61;28.66;100507.25;78962;277;3028086;-74
2023/06/19 10:29:52;;;;;;;3.90;3.60;;;;;;;32.36;28.89;100506.55;79021;277;3027305;-74
2023/06/19 10:32:29;;;;;;;3.80;3.50;;;;;;;32.25;28.95;100507.72;78986;277;3026805;-74
2023/06/19 10:35:13;;;;;;;3.60;3.30;;;;;;;32.12;29.00;100503.06;79052;277;3027613;-74
2023/06/19 10:37:49;;;;;;;3.70;3.30;;;;;;;32.17;29.60;100501.36;79066;277;3027326;-74
2023/06/19 10:40:24;;;;;;;4.00;3.50;;;;;;;32.21;29.63;100494.97;79003;277;3028652;-74
2023/06/19 10:43:00;;;;;;;4.10;3.80;;;;;;;32.31;30.04;100495.77;78883;271;3028686;-74
2023/06/19 10:45:37;;;;;;;3.60;3.30;;;;;;;32.43;29.80;100497.92;79730;277;3011329;-74
2023/06/19 10:48:13;;;;;;;4.00;3.50;;;;;;;32.49;29.44;100500.04;79035;277;3027453;-73
2023/06/19 10:50:50;;;;;;;4.20;3.80;;;;;;;32.46;29.21;100497.82;79027;277;3027801;-73
2023/06/19 10:53:32;;;;;;;3.80;3.50;;;;;;;32.42;29.31;100489.71;79049;277;3030503;-73
2023/06/19 10:56:08;;;;;;;3.70;3.40;;;;;;;32.45;29.55;100492.55;78972;277;3026809;-74
2023/06/19 10:58:43;;;;;;;4.30;3.90;;;;;;;32.56;29.81;100489.70;79074;277;3028613;-73
2023/06/19 11:01:20;;;;;;;4.00;3.70;;;;;;;32.54;29.08;100491.73;79742;277;3011502;-73
2023/06/19 11:03:55;;;;;;;4.30;3.90;;;;;;;32.48;29.09;100490.45;78968;278;3028467;-74
2023/06/19 11:06:31;;;;;;;3.80;3.50;;;;;;;32.35;28.71;100482.81;79748;269;3011574;-75
2023/06/19 11:09:08;;;;;;;3.90;3.60;;;;;;;32.36;30.05;100487.11;79765;277;3011572;-73
2023/06/19 11:11:46;;;;;;;4.00;3.70;;;;;;;32.50;30.23;100483.25;78978;277;3027730;-73
2023/06/19 11:14:21;;;;;;;4.00;3.60;;;;;;;32.62;30.27;100484.79;79044;277;3026981;-73
2023/06/19 11:16:58;;;;;;;4.70;4.00;;;;;;;32.63;29.51;100480.54;79709;278;3011593;-73
2023/06/19 11:19:34;;;;;;;3.80;3.60;;;;;;;32.48;29.38;100480.15;78984;278;3027598;-73
2023/06/19 11:22:10;;;;;;;4.50;4.00;;;;;;;32.45;29.86;100479.34;78131;278;3027837;-73
2023/06/19 11:24:50;;;;;;;3.70;3.50;;;;;;;32.47;29.91;100476.82;78995;277;3027138;-73
2023/06/19 11:27:28;;;;;;;4.00;3.40;;;;;;;32.42;29.46;100473.45;78979;278;3027052;-74
2023/06/19 11:30:06;;;;;;;4.40;4.00;;;;;;;32.22;29.93;100474.56;79067;278;3028404;-73
2023/06/19 11:32:48;;;;;;;4.20;3.80;;;;;;;31.91;29.71;100474.02;79021;277;3026856;-73
2023/06/19 11:35:31;;;;;;;3.90;3.60;;;;;;;31.57;30.28;100474.17;79026;278;3027285;-73
2023/06/19 11:38:08;;;;;;;4.20;3.90;;;;;;;31.52;30.33;100473.92;79018;278;3028716;-72
2023/06/19 11:40:46;;;;;;;4.10;3.80;;;;;;;31.38;29.91;100474.02;79003;277;3027286;-73
2023/06/19 11:43:31;;;;;;;4.00;3.70;;;;;;;31.26;30.59;100473.55;79027;277;3027488;-73
2023/06/19 11:46:10;;;;;;;4.10;3.70;;;;;;;31.10;31.18;100469.88;79014;278;3027611;-73
2023/06/19 11:48:46;;;;;;;6.30;5.80;;;;;;;30.86;31.73;100470.09;79019;277;3027621;-73
2023/06/19 11:51:22;;;;;;;4.70;4.20;;;;;;;30.66;31.88;100474.02;78922;278;3030788;-73
2023/06/19 11:53:58;;;;;;;4.20;3.90;;;;;;;30.35;31.88;100472.23;78975;277;3027319;-73